Time;durP1;ratioP1;P1;durP2;ratioP2;P2;SDS_P1;SDS_P2;PMS_P1;PMS_P2;Temp;Humidity;BMP_temperature;BMP_pressure;BME280_temperature;BME280_humidity;BME280_pressure;Samples;Min_cycle;Max_cycle;Signal;HPM_P1;HPM_P2
2022/03/29 00:00:39;;;;;;;29.25;21.23;;;7.80;99.90;;;;;;5028242;28;20392;-55
2022/03/29 00:03:06;;;;;;;32.20;21.42;;;7.80;99.90;;;;;;5027327;28;20460;-54
2022/03/29 00:05:32;;;;;;;29.83;20.30;;;7.90;99.90;;;;;;5045896;28;20381;-56
2022/03/29 00:07:58;;;;;;;33.35;21.08;;;7.80;99.90;;;;;;5030218;28;20413;-55
2022/03/29 00:10:24;;;;;;;30.98;21.15;;;7.80;99.90;;;;;;5048002;28;20492;-56
2022/03/29 00:12:53;;;;;;;29.83;22.00;;;7.80;99.90;;;;;;5031543;28;20763;-56
2022/03/29 00:15:20;;;;;;;27.83;21.33;;;7.70;99.90;;;;;;5033502;28;20686;-56
2022/03/29 00:17:45;;;;;;;30.23;20.67;;;7.70;99.90;;;;;;5051597;28;20405;-56
2022/03/29 00:20:11;;;;;;;28.45;21.38;;;7.70;99.90;;;;;;5031822;28;20421;-57
2022/03/29 00:22:37;;;;;;;34.58;21.90;;;7.70;99.90;;;;;;5032678;28;20673;-57
2022/03/29 00:25:02;;;;;;;32.77;22.10;;;7.70;99.90;;;;;;5034173;28;20423;-58
2022/03/29 00:27:28;;;;;;;26.97;19.97;;;7.70;99.90;;;;;;5051009;28;20741;-54
2022/03/29 00:29:53;;;;;;;33.20;21.17;;;7.70;99.90;;;;;;5052254;28;20385;-58
2022/03/29 00:32:22;;;;;;;29.15;21.38;;;7.70;99.90;;;;;;5035522;28;20389;-56
2022/03/29 00:34:48;;;;;;;32.60;20.98;;;7.70;99.90;;;;;;5034110;28;20452;-57
2022/03/29 00:37:13;;;;;;;34.67;23.43;;;7.70;99.90;;;;;;5034709;28;20444;-57
2022/03/29 00:39:39;;;;;;;32.63;21.80;;;7.70;99.90;;;;;;5034110;28;20378;-57
2022/03/29 00:42:05;;;;;;;33.03;23.75;;;7.80;99.90;;;;;;5033420;28;20811;-56
2022/03/29 00:44:33;;;;;;;32.00;23.17;;;7.80;99.90;;;;;;5037005;28;20381;-55
2022/03/29 00:47:00;;;;;;;34.95;23.25;;;7.80;99.90;;;;;;5038673;28;20797;-55
2022/03/29 00:49:26;;;;;;;28.77;21.75;;;7.80;99.90;;;;;;5038974;28;20480;-54
2022/03/29 00:51:58;;;;;;;30.67;21.52;;;7.70;99.90;;;;;;5058220;28;20658;-58
2022/03/29 00:54:35;;;;;;;31.13;21.48;;;7.70;99.90;;;;;;5039260;28;20479;-57
2022/03/29 00:57:03;;;;;;;26.70;19.83;;;7.80;99.90;;;;;;5038735;28;20859;-57
2022/03/29 00:59:29;;;;;;;32.83;22.55;;;7.80;99.90;;;;;;5036193;28;20381;-57
2022/03/29 01:01:57;;;;;;;30.15;21.63;;;7.80;99.90;;;;;;5036391;28;20451;-57
2022/03/29 01:04:23;;;;;;;33.35;21.98;;;7.80;99.90;;;;;;5035333;28;20390;-56
2022/03/29 01:06:49;;;;;;;34.67;22.40;;;7.80;99.90;;;;;;5035521;28;20693;-58
2022/03/29 01:09:15;;;;;;;35.33;22.00;;;7.70;99.90;;;;;;5034706;28;20439;-57
2022/03/29 01:11:41;;;;;;;31.47;22.53;;;7.70;99.90;;;;;;5034501;28;20386;-56
2022/03/29 01:14:07;;;;;;;35.13;23.33;;;7.70;99.90;;;;;;5035808;28;20397;-56
2022/03/29 01:19:20;;;;;;;31.37;21.43;;;7.70;99.90;;;;;;5050908;28;20602;-58
2022/03/29 01:21:58;;;;;;;27.17;20.15;;;7.70;99.90;;;;;;5035410;28;20404;-55
2022/03/29 01:24:25;;;;;;;29.77;21.15;;;7.70;99.90;;;;;;5053307;28;20386;-58
2022/03/29 01:26:53;;;;;;;28.93;19.97;;;7.70;99.90;;;;;;5036089;28;20479;-57
2022/03/29 01:29:20;;;;;;;28.95;20.60;;;7.80;99.90;;;;;;5035390;28;20407;-58
2022/03/29 01:31:48;;;;;;;26.65;19.08;;;7.80;99.90;;;;;;5036823;28;20400;-54
2022/03/29 01:34:14;;;;;;;31.50;19.33;;;7.80;99.90;;;;;;5032289;28;20423;-54
2022/03/29 01:36:40;;;;;;;28.23;19.88;;;7.80;99.90;;;;;;5031674;28;20383;-54
2022/03/29 01:39:05;;;;;;;29.02;19.27;;;7.80;99.90;;;;;;5031446;28;20441;-56
2022/03/29 01:41:31;;;;;;;27.43;18.83;;;7.80;99.90;;;;;;5030952;28;20391;-58
2022/03/29 01:43:57;;;;;;;24.90;18.10;;;7.80;99.90;;;;;;5032841;28;20545;-56
2022/03/29 01:46:23;;;;;;;29.57;19.13;;;7.80;99.90;;;;;;5031491;28;20496;-58
2022/03/29 01:48:49;;;;;;;26.47;17.97;;;7.70;99.90;;;;;;5031461;28;20560;-55
2022/03/29 01:51:15;;;;;;;27.25;18.23;;;7.70;99.90;;;;;;5032242;28;20417;-57
2022/03/29 01:53:41;;;;;;;24.42;18.75;;;7.70;99.90;;;;;;5033126;28;20407;-56
2022/03/29 01:56:07;;;;;;;24.13;16.77;;;7.60;99.90;;;;;;5033957;28;20462;-56
2022/03/29 01:58:33;;;;;;;24.10;17.07;;;7.70;99.90;;;;;;5034089;28;20569;-56
2022/03/29 02:00:59;;;;;;;26.25;17.20;;;7.70;99.90;;;;;;5034184;28;20387;-55
2022/03/29 02:03:25;;;;;;;24.50;16.97;;;7.70;99.90;;;;;;5035494;28;20474;-57
2022/03/29 02:05:51;;;;;;;26.35;17.40;;;7.80;99.90;;;;;;5034562;28;20397;-53
2022/03/29 02:08:16;;;;;;;24.30;17.30;;;7.80;99.90;;;;;;5034892;28;20403;-53
2022/03/29 02:10:42;;;;;;;23.97;16.23;;;7.80;99.90;;;;;;5033893;28;20398;-56
2022/03/29 02:13:12;;;;;;;25.77;16.37;;;7.80;99.90;;;;;;5033002;28;20730;-54
2022/03/29 02:15:39;;;;;;;24.40;15.02;;;7.80;99.90;;;;;;5034147;28;20403;-54
2022/03/29 02:18:06;;;;;;;23.10;13.75;;;7.70;99.90;;;;;;5032681;28;20401;-58
2022/03/29 02:20:32;;;;;;;22.35;13.60;;;7.70;99.90;;;;;;5033771;28;20387;-58
2022/03/29 02:23:02;;;;;;;21.08;12.05;;;7.70;99.90;;;;;;5033142;28;20395;-56
2022/03/29 02:25:28;;;;;;;17.50;11.00;;;7.70;99.90;;;;;;5035082;28;20398;-59
2022/03/29 02:27:55;;;;;;;17.37;10.27;;;7.70;99.90;;;;;;5031771;28;20453;-57
2022/03/29 02:30:20;;;;;;;17.20;10.52;;;7.70;99.90;;;;;;5031721;28;20782;-59
2022/03/29 02:32:46;;;;;;;18.60;10.25;;;7.70;99.90;;;;;;5034983;28;20405;-56
2022/03/29 02:35:12;;;;;;;17.73;11.10;;;7.70;99.90;;;;;;5035885;28;20825;-59
2022/03/29 02:37:38;;;;;;;17.60;10.25;;;7.70;99.90;;;;;;5035801;28;20396;-58
2022/03/29 02:40:05;;;;;;;19.90;10.77;;;7.70;99.90;;;;;;5035587;28;20374;-59
2022/03/29 02:42:32;;;;;;;18.48;10.98;;;7.70;99.90;;;;;;5053128;28;20389;-58
2022/03/29 02:44:57;;;;;;;17.17;11.00;;;7.70;99.90;;;;;;5052614;28;20689;-56
2022/03/29 02:47:23;;;;;;;19.95;11.95;;;7.80;99.90;;;;;;5035190;28;20392;-54
2022/03/29 02:49:49;;;;;;;18.50;11.20;;;7.80;99.90;;;;;;5052208;28;20480;-58
2022/03/29 02:52:15;;;;;;;22.58;11.32;;;7.80;99.90;;;;;;5050799;28;20431;-58
2022/03/29 02:54:41;;;;;;;18.60;10.88;;;7.80;99.90;;;;;;5034395;28;20402;-56
2022/03/29 02:57:07;;;;;;;17.83;10.38;;;7.70;99.90;;;;;;5033901;28;20446;-58
2022/03/29 02:59:33;;;;;;;16.43;10.17;;;7.70;99.90;;;;;;5034453;28;20390;-58
2022/03/29 03:01:58;;;;;;;17.10;9.77;;;7.60;99.90;;;;;;5036119;28;20439;-56
2022/03/29 03:04:24;;;;;;;18.40;9.98;;;7.60;99.90;;;;;;5036184;28;20801;-59
2022/03/29 03:06:49;;;;;;;15.57;9.60;;;7.60;99.90;;;;;;5053963;28;20482;-57
2022/03/29 03:09:15;;;;;;;13.70;8.57;;;7.60;99.90;;;;;;5036589;28;20397;-59
2022/03/29 03:11:41;;;;;;;13.50;8.93;;;7.60;99.90;;;;;;5036540;28;20507;-58
2022/03/29 03:14:06;;;;;;;18.00;8.48;;;7.60;99.90;;;;;;5037259;28;20397;-56
2022/03/29 03:16:32;;;;;;;16.27;8.07;;;7.60;99.90;;;;;;5036994;28;20384;-58
2022/03/29 03:18:57;;;;;;;14.60;7.73;;;7.50;99.90;;;;;;5035633;28;20393;-57
2022/03/29 03:21:23;;;;;;;19.27;8.63;;;7.40;99.90;;;;;;5054416;28;20768;-59
2022/03/29 03:23:49;;;;;;;18.20;8.65;;;7.40;99.90;;;;;;5054214;28;20393;-58
2022/03/29 03:26:15;;;;;;;18.70;8.60;;;7.40;99.90;;;;;;5037542;28;20716;-56
2022/03/29 03:28:41;;;;;;;18.53;8.17;;;7.40;99.90;;;;;;5053315;28;20466;-58
2022/03/29 03:31:06;;;;;;;17.67;8.73;;;7.30;99.90;;;;;;5036424;28;20388;-57
2022/03/29 03:33:32;;;;;;;16.15;8.40;;;7.30;99.90;;;;;;5036042;28;20456;-58
2022/03/29 03:35:58;;;;;;;19.80;8.57;;;7.30;99.90;;;;;;5035180;28;20475;-54
2022/03/29 03:38:23;;;;;;;17.83;7.60;;;7.30;99.90;;;;;;5053406;28;20428;-58
2022/03/29 03:40:49;;;;;;;15.13;7.30;;;7.20;99.90;;;;;;5053907;28;20377;-56
2022/03/29 03:43:14;;;;;;;16.57;7.67;;;7.30;99.90;;;;;;5035353;28;20802;-51
2022/03/29 03:45:40;;;;;;;12.95;6.43;;;7.20;99.90;;;;;;5035830;28;20394;-57
2022/03/29 03:48:12;;;;;;;16.92;7.50;;;7.20;99.90;;;;;;5053828;28;20654;-58
2022/03/29 03:50:38;;;;;;;15.93;7.00;;;7.20;99.90;;;;;;5036448;28;20463;-54
2022/03/29 03:53:03;;;;;;;17.20;6.88;;;7.20;99.90;;;;;;5036894;28;20401;-59
2022/03/29 03:55:29;;;;;;;16.67;7.03;;;7.30;99.90;;;;;;5036022;28;20462;-58
2022/03/29 03:57:54;;;;;;;19.27;7.00;;;7.30;99.90;;;;;;5035737;28;20768;-59
2022/03/29 04:00:21;;;;;;;14.65;6.75;;;7.20;99.90;;;;;;5052803;28;20435;-59
2022/03/29 04:02:49;;;;;;;22.73;7.28;;;7.10;99.90;;;;;;5034946;28;20491;-57
2022/03/29 04:05:14;;;;;;;22.27;6.28;;;7.10;99.90;;;;;;5050461;28;20466;-58
2022/03/29 04:07:41;;;;;;;22.07;6.37;;;6.90;99.90;;;;;;5033911;28;20409;-56
2022/03/29 04:10:07;;;;;;;27.88;6.95;;;6.90;99.90;;;;;;5032624;28;20584;-57
2022/03/29 04:12:34;;;;;;;23.33;6.25;;;6.90;99.90;;;;;;5050404;28;20451;-56
2022/03/29 04:15:00;;;;;;;21.10;6.23;;;6.90;99.90;;;;;;5050836;28;20401;-58
2022/03/29 04:17:25;;;;;;;29.27;7.07;;;6.90;99.90;;;;;;5033218;28;20389;-55
2022/03/29 04:19:51;;;;;;;20.50;5.70;;;6.80;99.90;;;;;;5036019;28;20373;-59
2022/03/29 04:22:19;;;;;;;25.73;6.67;;;6.80;99.90;;;;;;5035800;28;20482;-57
2022/03/29 04:24:45;;;;;;;22.53;6.00;;;6.80;99.90;;;;;;5051954;28;20459;-55
2022/03/29 04:27:11;;;;;;;22.35;6.45;;;6.70;99.90;;;;;;5034422;28;20373;-58
2022/03/29 04:29:36;;;;;;;29.40;7.20;;;6.70;99.90;;;;;;5034091;28;20401;-54
2022/03/29 04:32:02;;;;;;;24.17;6.27;;;6.60;99.90;;;;;;5033467;28;20417;-58
2022/03/29 04:34:28;;;;;;;22.20;6.33;;;6.60;99.90;;;;;;5034953;28;20913;-57
2022/03/29 04:36:54;;;;;;;24.23;6.50;;;6.60;99.90;;;;;;5052343;28;20443;-59
2022/03/29 04:39:19;;;;;;;22.83;6.28;;;6.60;99.90;;;;;;5034884;28;20389;-57
2022/03/29 04:41:45;;;;;;;21.70;5.95;;;6.60;99.90;;;;;;5035053;28;20381;-59
2022/03/29 04:44:11;;;;;;;21.00;6.47;;;6.60;99.90;;;;;;5036200;28;20382;-57
2022/03/29 04:46:36;;;;;;;23.53;6.30;;;6.60;99.90;;;;;;5035455;28;20382;-59
2022/03/29 04:49:02;;;;;;;21.47;6.00;;;6.70;99.90;;;;;;5034093;28;20926;-59
2022/03/29 04:51:28;;;;;;;25.83;6.53;;;6.60;99.90;;;;;;5033513;28;21116;-59
2022/03/29 04:53:53;;;;;;;22.17;6.00;;;6.60;99.90;;;;;;5050256;28;20700;-59
2022/03/29 04:56:19;;;;;;;16.92;5.43;;;6.60;99.90;;;;;;5049057;28;20722;-59
2022/03/29 04:58:44;;;;;;;26.27;6.10;;;6.60;99.90;;;;;;5050940;28;20398;-59
2022/03/29 05:01:10;;;;;;;26.20;7.10;;;6.60;99.90;;;;;;5034824;28;20401;-59
2022/03/29 05:03:36;;;;;;;23.38;6.50;;;6.50;99.90;;;;;;5033813;28;20397;-58
2022/03/29 05:06:01;;;;;;;22.58;6.25;;;6.50;99.90;;;;;;5052068;28;20659;-59
2022/03/29 05:08:27;;;;;;;23.55;6.32;;;6.50;99.90;;;;;;5034530;28;20828;-59
2022/03/29 05:10:53;;;;;;;28.77;6.53;;;6.40;99.90;;;;;;5033229;28;20598;-58
2022/03/29 05:13:18;;;;;;;26.63;6.25;;;6.40;99.90;;;;;;5032648;28;20469;-58
2022/03/29 05:15:44;;;;;;;24.93;6.70;;;6.40;99.90;;;;;;5049537;28;20405;-57
2022/03/29 05:18:10;;;;;;;21.50;5.70;;;6.30;99.90;;;;;;5034602;28;20428;-57
2022/03/29 05:20:36;;;;;;;23.58;5.80;;;6.30;99.90;;;;;;5033677;28;20634;-58
2022/03/29 05:23:06;;;;;;;26.27;6.07;;;6.30;99.90;;;;;;5033015;28;20398;-59
2022/03/29 05:25:32;;;;;;;28.50;6.95;;;6.30;99.90;;;;;;5030896;28;20382;-58
2022/03/29 05:27:58;;;;;;;26.67;6.78;;;6.20;99.90;;;;;;5031290;28;20611;-58
2022/03/29 05:30:24;;;;;;;26.88;5.60;;;6.20;99.90;;;;;;5047920;28;20905;-55
2022/03/29 05:32:57;;;;;;;22.92;6.03;;;6.20;99.90;;;;;;5028399;28;20418;-57
2022/03/29 05:35:29;;;;;;;23.88;5.78;;;6.20;99.90;;;;;;5027967;28;20891;-56
2022/03/29 05:37:56;;;;;;;28.92;6.30;;;6.20;99.90;;;;;;5029821;28;20459;-58
2022/03/29 05:40:21;;;;;;;24.77;5.75;;;6.10;99.90;;;;;;5030170;28;20393;-56
2022/03/29 05:42:47;;;;;;;23.20;5.77;;;6.10;99.90;;;;;;5031463;28;20374;-57
2022/03/29 05:45:13;;;;;;;25.50;5.70;;;6.10;99.90;;;;;;5029513;28;20828;-58
2022/03/29 05:50:25;;;;;;;21.85;6.00;;;6.10;99.90;;;;;;5047658;28;20564;-58
2022/03/29 05:52:51;;;;;;;24.90;5.63;;;6.10;99.90;;;;;;5028805;28;20389;-57
2022/03/29 05:55:16;;;;;;;18.50;5.28;;;6.10;99.90;;;;;;5028234;28;20756;-55
2022/03/29 05:57:42;;;;;;;23.42;6.05;;;6.10;99.90;;;;;;5047092;28;20409;-58
2022/03/29 06:00:12;;;;;;;18.30;4.47;;;6.10;99.90;;;;;;5046427;28;20662;-57
2022/03/29 06:02:38;;;;;;;23.83;5.65;;;6.10;99.90;;;;;;5029618;28;20378;-54
2022/03/29 06:05:05;;;;;;;21.75;5.43;;;6.10;99.90;;;;;;5046380;28;20411;-54
2022/03/29 06:07:30;;;;;;;22.15;5.88;;;6.20;99.90;;;;;;5046198;28;20389;-58
2022/03/29 06:09:56;;;;;;;24.10;6.10;;;6.20;99.90;;;;;;5029694;28;20389;-57
2022/03/29 06:12:22;;;;;;;17.37;4.67;;;6.20;99.90;;;;;;5045862;28;20393;-57
2022/03/29 06:14:49;;;;;;;23.55;5.63;;;6.20;99.90;;;;;;5026374;28;20405;-59
2022/03/29 06:17:15;;;;;;;10.57;3.65;;;6.20;99.90;;;;;;5022494;28;20415;-57
2022/03/29 06:19:41;;;;;;;22.02;5.07;;;6.20;99.90;;;;;;5023138;28;20381;-59
2022/03/29 06:22:07;;;;;;;21.47;5.37;;;6.30;99.90;;;;;;5024711;28;20488;-57
2022/03/29 06:24:32;;;;;;;25.70;5.33;;;6.30;99.90;;;;;;5026441;28;20385;-58
2022/03/29 06:26:58;;;;;;;19.30;5.07;;;6.30;99.90;;;;;;5041836;28;20847;-58
2022/03/29 06:29:24;;;;;;;20.70;4.80;;;6.30;99.90;;;;;;5023074;28;20421;-59
2022/03/29 06:31:51;;;;;;;20.37;4.67;;;6.30;99.90;;;;;;5042043;28;20420;-54
2022/03/29 06:34:16;;;;;;;16.15;4.40;;;6.30;99.90;;;;;;5041233;28;20409;-58
2022/03/29 06:36:42;;;;;;;20.23;4.82;;;6.30;99.90;;;;;;5040496;28;20471;-57
2022/03/29 06:39:08;;;;;;;20.13;4.60;;;6.30;99.90;;;;;;5038515;28;20391;-57
2022/03/29 06:41:34;;;;;;;16.08;4.38;;;6.30;99.90;;;;;;5022046;28;20957;-58
2022/03/29 06:44:00;;;;;;;23.17;5.13;;;6.30;99.90;;;;;;5023295;28;21116;-57
2022/03/29 06:46:26;;;;;;;17.48;4.70;;;6.40;99.90;;;;;;5024510;28;20480;-58
2022/03/29 06:48:54;;;;;;;17.00;4.10;;;6.40;99.90;;;;;;5024123;28;20481;-53
2022/03/29 06:51:19;;;;;;;20.25;4.70;;;6.50;99.90;;;;;;5023376;28;20386;-58
2022/03/29 06:53:45;;;;;;;17.80;4.40;;;6.40;99.90;;;;;;5023940;28;20409;-58
2022/03/29 06:56:11;;;;;;;20.23;4.38;;;6.40;99.90;;;;;;5041891;28;20481;-56
2022/03/29 06:58:38;;;;;;;24.70;5.03;;;6.40;99.90;;;;;;5022656;28;20390;-55
2022/03/29 07:01:04;;;;;;;18.00;4.40;;;6.40;99.90;;;;;;5023745;28;20666;-57
2022/03/29 07:03:30;;;;;;;18.63;4.40;;;6.40;99.90;;;;;;5025743;28;20462;-57
2022/03/29 07:05:58;;;;;;;20.42;4.45;;;6.50;99.90;;;;;;5044872;28;20455;-56
2022/03/29 07:08:24;;;;;;;18.35;4.35;;;6.50;99.90;;;;;;5030240;28;20829;-58
2022/03/29 07:13:34;;;;;;;18.77;4.43;;;6.50;99.90;;;;;;5048220;28;20391;-57
2022/03/29 07:16:00;;;;;;;16.92;4.22;;;6.60;99.90;;;;;;5030494;28;20457;-57
2022/03/29 07:18:25;;;;;;;16.83;4.35;;;6.60;99.90;;;;;;5045368;28;20393;-57
2022/03/29 07:20:51;;;;;;;16.57;4.40;;;6.60;99.90;;;;;;5026196;28;20381;-58
2022/03/29 07:23:17;;;;;;;19.23;4.17;;;6.60;99.90;;;;;;5026934;28;20500;-56
2022/03/29 07:25:42;;;;;;;16.08;4.10;;;6.60;99.90;;;;;;5027651;28;20496;-53
2022/03/29 07:28:11;;;;;;;16.42;3.70;;;6.60;99.90;;;;;;5026738;28;20405;-63
2022/03/29 07:30:41;;;;;;;14.07;3.40;;;6.60;99.90;;;;;;5024575;28;20385;-58
2022/03/29 07:33:09;;;;;;;16.52;3.85;;;6.60;99.90;;;;;;5027427;28;21047;-59
2022/03/29 07:35:34;;;;;;;12.02;3.00;;;6.70;99.90;;;;;;5025991;28;20627;-60
2022/03/29 07:38:02;;;;;;;17.35;3.65;;;6.70;99.90;;;;;;5028341;28;20413;-53
2022/03/29 07:40:29;;;;;;;16.65;3.65;;;6.70;99.90;;;;;;5028783;28;20828;-59
2022/03/29 07:42:55;;;;;;;12.27;3.35;;;6.80;99.90;;;;;;5047745;28;20440;-58
2022/03/29 07:45:21;;;;;;;15.38;3.55;;;6.80;99.90;;;;;;5028490;28;20377;-56
2022/03/29 07:47:55;;;;;;;16.38;3.88;;;6.90;99.90;;;;;;5029166;28;20883;-58
2022/03/29 07:50:21;;;;;;;18.25;3.35;;;6.90;99.90;;;;;;5030637;28;20392;-58
2022/03/29 07:52:47;;;;;;;11.52;2.58;;;6.90;99.90;;;;;;5031655;28;20405;-58
2022/03/29 07:55:13;;;;;;;15.80;3.72;;;7.00;99.90;;;;;;5032555;28;20411;-58
2022/03/29 07:57:40;;;;;;;12.43;2.80;;;7.10;99.90;;;;;;5051173;28;20392;-57
2022/03/29 08:02:52;;;;;;;16.70;3.70;;;7.10;99.90;;;;;;5049078;28;20380;-57
2022/03/29 08:05:20;;;;;;;15.07;3.15;;;7.10;99.90;;;;;;5031357;28;20669;-59
2022/03/29 08:07:46;;;;;;;10.00;2.85;;;7.10;99.90;;;;;;5048238;28;20396;-53
2022/03/29 08:10:13;;;;;;;12.83;3.30;;;7.10;99.90;;;;;;5030245;28;20393;-55
2022/03/29 08:12:42;;;;;;;13.20;3.08;;;7.10;99.90;;;;;;5046990;28;20669;-60
2022/03/29 08:15:10;;;;;;;14.45;3.10;;;7.10;99.90;;;;;;5026385;28;20408;-59
2022/03/29 08:17:36;;;;;;;13.73;3.47;;;7.20;99.90;;;;;;5024348;28;20471;-60
2022/03/29 08:20:04;;;;;;;11.70;2.80;;;7.20;99.90;;;;;;5024556;28;20369;-58
2022/03/29 08:22:30;;;;;;;12.75;3.30;;;7.20;99.90;;;;;;5021315;28;20389;-58
2022/03/29 08:24:56;;;;;;;14.93;3.72;;;7.40;99.90;;;;;;5025805;28;20603;-56
2022/03/29 08:27:22;;;;;;;12.65;3.25;;;7.50;99.90;;;;;;5025821;28;20400;-56
2022/03/29 08:29:47;;;;;;;13.80;3.30;;;7.50;99.90;;;;;;5023841;28;20598;-58
2022/03/29 08:32:13;;;;;;;12.90;3.03;;;7.40;99.90;;;;;;5025656;28;20670;-57
2022/03/29 08:34:39;;;;;;;13.75;3.25;;;7.40;99.90;;;;;;5043387;28;20421;-58
2022/03/29 08:37:05;;;;;;;9.57;2.70;;;7.40;99.90;;;;;;5027400;28;20402;-57
2022/03/29 08:39:30;;;;;;;9.63;2.40;;;7.40;99.90;;;;;;5027397;28;20377;-58
2022/03/29 08:42:03;;;;;;;7.37;2.57;;;7.50;99.90;;;;;;5027941;28;20560;-57
2022/03/29 08:44:30;;;;;;;14.23;3.23;;;7.50;99.90;;;;;;5044919;28;20526;-56
2022/03/29 08:46:56;;;;;;;11.32;2.90;;;7.60;99.90;;;;;;5028213;28;20458;-60
2022/03/29 08:49:22;;;;;;;13.63;2.90;;;7.60;99.90;;;;;;5047506;28;20380;-58
2022/03/29 08:51:49;;;;;;;15.13;3.30;;;7.70;99.90;;;;;;5046952;28;20474;-56
2022/03/29 08:54:15;;;;;;;11.57;2.67;;;7.70;99.90;;;;;;5046715;28;20740;-55
2022/03/29 08:56:41;;;;;;;13.75;3.70;;;7.60;99.90;;;;;;5063319;28;20601;-58
2022/03/29 08:59:07;;;;;;;10.32;2.70;;;7.60;99.90;;;;;;5041037;28;20387;-57
2022/03/29 09:01:32;;;;;;;15.63;2.95;;;7.60;99.90;;;;;;5042363;28;20382;-56
2022/03/29 09:04:08;;;;;;;14.73;3.53;;;7.60;99.90;;;;;;5043812;28;20411;-57
2022/03/29 09:06:56;;;;;;;11.40;3.17;;;7.50;99.90;;;;;;5043299;28;20403;-56
2022/03/29 09:09:36;;;;;;;12.38;3.40;;;7.60;99.90;;;;;;5045270;28;20454;-58
2022/03/29 09:12:17;;;;;;;9.75;3.13;;;7.80;99.90;;;;;;5045036;28;20384;-57
2022/03/29 09:14:58;;;;;;;10.30;3.00;;;7.90;99.90;;;;;;5042453;28;20408;-56
2022/03/29 09:17:32;;;;;;;10.30;2.95;;;7.90;99.90;;;;;;5057606;28;20773;-57
2022/03/29 09:20:05;;;;;;;8.38;2.67;;;8.00;99.90;;;;;;5024634;28;20397;-56
2022/03/29 09:22:51;;;;;;;8.88;2.35;;;7.90;99.90;;;;;;5045872;28;20585;-56
2022/03/29 09:25:21;;;;;;;10.98;2.53;;;7.90;99.90;;;;;;5028041;28;20680;-57
2022/03/29 09:27:55;;;;;;;9.25;2.30;;;8.00;99.90;;;;;;5026523;28;20385;-56
2022/03/29 09:30:24;;;;;;;15.27;2.75;;;8.10;99.90;;;;;;5048605;28;20381;-56
2022/03/29 09:32:52;;;;;;;11.50;3.20;;;8.10;99.90;;;;;;5033827;28;20444;-56
2022/03/29 09:35:19;;;;;;;11.00;3.03;;;8.10;99.90;;;;;;5034020;28;20410;-57
2022/03/29 09:37:45;;;;;;;9.55;2.58;;;8.10;99.90;;;;;;5035115;28;20499;-56
2022/03/29 09:40:13;;;;;;;10.18;2.20;;;8.10;99.90;;;;;;5051132;28;20953;-56
2022/03/29 09:42:40;;;;;;;9.75;2.67;;;8.10;99.90;;;;;;5033902;28;20806;-59
2022/03/29 09:45:08;;;;;;;10.38;3.10;;;8.30;99.90;;;;;;5016415;28;20686;-60
2022/03/29 09:47:34;;;;;;;11.75;2.50;;;8.50;99.90;;;;;;5037947;28;20379;-56
2022/03/29 09:50:13;;;;;;;9.50;3.15;;;8.60;99.90;;;;;;5068104;28;20387;-55
2022/03/29 09:52:44;;;;;;;10.05;2.53;;;8.60;99.90;;;;;;5045906;28;20429;-58
2022/03/29 09:55:13;;;;;;;10.18;2.85;;;8.50;99.90;;;;;;5046700;28;20540;-55
2022/03/29 09:57:49;;;;;;;12.85;3.08;;;8.40;99.90;;;;;;5047739;28;20431;-58
2022/03/29 10:00:16;;;;;;;12.33;3.03;;;8.30;99.90;;;;;;5049197;28;20435;-54
2022/03/29 10:02:45;;;;;;;9.68;2.45;;;8.30;99.90;;;;;;5049528;28;20430;-58
2022/03/29 10:05:12;;;;;;;11.63;2.40;;;8.30;99.90;;;;;;5049593;28;20428;-57
2022/03/29 10:09:25;;;;;;;10.77;2.93;;;8.40;99.90;;;;;;5048920;28;20538;-58
2022/03/29 10:10:43;;;;;;;9.60;2.42;;;8.50;99.90;;;;;;5049329;28;20454;-54
2022/03/29 10:13:11;;;;;;;11.93;2.75;;;8.50;99.90;;;;;;5031774;28;20433;-56
2022/03/29 10:15:40;;;;;;;8.13;2.33;;;8.60;99.90;;;;;;5046034;28;20425;-56
2022/03/29 10:18:08;;;;;;;9.98;2.30;;;8.60;99.90;;;;;;5047377;28;20377;-56
2022/03/29 10:20:36;;;;;;;8.65;2.42;;;8.60;99.90;;;;;;5049281;28;20390;-56
2022/03/29 10:23:05;;;;;;;11.13;2.67;;;8.70;99.90;;;;;;5049417;28;20435;-54
2022/03/29 10:25:32;;;;;;;9.27;2.50;;;8.70;99.90;;;;;;5050490;28;20412;-53
2022/03/29 10:28:01;;;;;;;10.50;2.97;;;8.70;99.90;;;;;;5068354;28;20397;-57
2022/03/29 10:30:33;;;;;;;8.82;2.30;;;8.70;99.90;;;;;;5052920;28;20880;-58
2022/03/29 10:33:35;;;;;;;10.35;2.72;;;8.80;99.90;;;;;;5067874;28;20421;-52
2022/03/29 10:36:12;;;;;;;10.70;2.35;;;8.90;99.90;;;;;;5007996;28;20412;-57
2022/03/29 10:38:46;;;;;;;9.63;2.25;;;9.00;99.90;;;;;;5007767;28;20416;-58
2022/03/29 10:41:33;;;;;;;7.95;2.50;;;9.10;99.90;;;;;;5006285;28;20393;-57
2022/03/29 10:44:08;;;;;;;8.25;2.17;;;9.10;99.90;;;;;;4991063;28;20404;-55
2022/03/29 10:46:46;;;;;;;10.67;2.67;;;9.10;99.90;;;;;;4990087;28;20495;-57
2022/03/29 10:49:32;;;;;;;6.18;2.20;;;9.10;99.90;;;;;;4988226;28;20484;-57
2022/03/29 10:52:06;;;;;;;10.88;2.15;;;9.30;99.90;;;;;;5048917;28;20413;-55
2022/03/29 10:54:41;;;;;;;8.25;2.40;;;9.70;99.90;;;;;;5049643;28;20434;-54
2022/03/29 10:57:24;;;;;;;8.90;1.98;;;9.70;99.90;;;;;;5050524;28;20929;-53
2022/03/29 10:59:51;;;;;;;6.88;2.20;;;10.00;99.90;;;;;;5050578;28;20913;-57
2022/03/29 11:02:20;;;;;;;8.77;2.08;;;10.00;99.90;;;;;;5050893;28;20453;-57
2022/03/29 11:05:11;;;;;;;8.77;2.10;;;10.20;99.90;;;;;;5048943;28;20378;-57
2022/03/29 11:08:00;;;;;;;12.05;2.50;;;10.50;99.90;;;;;;5049841;28;20400;-57
2022/03/29 11:10:45;;;;;;;6.78;2.15;;;10.70;99.90;;;;;;5048874;28;20867;-56
2022/03/29 11:13:38;;;;;;;6.80;2.10;;;10.70;99.90;;;;;;5049842;28;20966;-55
2022/03/29 11:16:30;;;;;;;7.80;2.45;;;10.70;99.90;;;;;;5050019;28;20396;-56
2022/03/29 11:18:58;;;;;;;8.95;2.60;;;10.70;99.90;;;;;;5049164;28;20385;-56
2022/03/29 11:21:33;;;;;;;6.63;2.10;;;10.70;99.90;;;;;;5049674;28;20797;-57
2022/03/29 11:24:02;;;;;;;8.02;1.77;;;10.90;99.90;;;;;;5047587;28;20385;-56
2022/03/29 11:26:29;;;;;;;12.27;2.45;;;11.10;99.90;;;;;;5047123;28;20382;-56
2022/03/29 11:28:57;;;;;;;7.85;2.40;;;11.30;99.90;;;;;;5046819;28;20413;-57
2022/03/29 11:31:32;;;;;;;8.32;2.10;;;11.30;99.90;;;;;;5029023;28;20389;-58
2022/03/29 11:33:59;;;;;;;7.55;2.28;;;11.20;99.90;;;;;;5047157;28;20424;-57
2022/03/29 11:36:28;;;;;;;9.52;2.22;;;11.10;99.90;;;;;;5044598;28;21246;-57
2022/03/29 11:38:55;;;;;;;11.90;2.50;;;11.30;99.90;;;;;;5046657;28;20642;-59
2022/03/29 11:41:30;;;;;;;7.35;2.03;;;11.30;99.90;;;;;;5048051;28;20385;-58
2022/03/29 11:44:05;;;;;;;10.70;2.30;;;11.60;99.90;;;;;;5047169;28;20385;-58
2022/03/29 11:46:53;;;;;;;9.73;1.95;;;11.40;99.90;;;;;;5046294;28;20482;-57
2022/03/29 11:49:22;;;;;;;7.35;2.10;;;11.30;99.90;;;;;;5028317;28;20389;-58
2022/03/29 11:52:06;;;;;;;7.43;1.90;;;11.30;99.90;;;;;;5048269;28;20408;-58
2022/03/29 11:54:45;;;;;;;6.93;2.22;;;11.70;99.90;;;;;;5049642;28;20401;-55
2022/03/29 11:57:38;;;;;;;6.50;2.00;;;11.80;99.90;;;;;;5029583;28;20638;-58
2022/03/29 12:00:23;;;;;;;9.10;2.17;;;12.00;99.90;;;;;;5046688;28;20670;-57
2022/03/29 12:02:51;;;;;;;6.97;2.00;;;12.20;99.90;;;;;;5015862;28;20496;-54
2022/03/29 12:05:27;;;;;;;7.18;2.30;;;12.30;99.90;;;;;;5031295;28;20824;-58
2022/03/29 12:08:02;;;;;;;5.57;1.75;;;12.40;99.90;;;;;;5046397;28;20982;-57
2022/03/29 12:10:34;;;;;;;8.20;2.03;;;12.50;99.90;;;;;;5030708;28;20492;-58
2022/03/29 12:13:00;;;;;;;6.63;1.95;;;12.50;99.90;;;;;;5046918;28;20393;-56
2022/03/29 12:15:27;;;;;;;8.02;2.42;;;12.50;99.90;;;;;;5047484;28;20717;-55
2022/03/29 12:20:43;;;;;;;6.57;1.92;;;12.30;99.90;;;;;;5047246;28;20384;-56
2022/03/29 12:23:41;;;;;;;6.20;1.90;;;12.60;99.90;;;;;;5027231;28;20392;-58
2022/03/29 12:26:10;;;;;;;9.50;2.25;;;13.00;99.90;;;;;;5033689;28;21132;-55
2022/03/29 12:28:39;;;;;;;7.18;2.15;;;13.10;99.90;;;;;;5009133;28;20393;-55
2022/03/29 12:31:13;;;;;;;6.30;2.10;;;13.10;99.90;;;;;;5044268;28;20741;-55
2022/03/29 12:33:40;;;;;;;6.65;2.38;;;13.00;99.90;;;;;;5028454;28;20808;-55
2022/03/29 12:36:20;;;;;;;10.15;2.13;;;12.90;99.90;;;;;;5029273;28;20985;-58
2022/03/29 12:38:58;;;;;;;8.23;2.00;;;13.10;99.90;;;;;;5029488;28;20407;-57
2022/03/29 12:41:52;;;;;;;7.50;2.10;;;13.20;99.90;;;;;;5027273;28;20686;-56
2022/03/29 12:44:36;;;;;;;5.90;2.17;;;13.60;99.90;;;;;;5029287;28;20801;-58
2022/03/29 12:47:03;;;;;;;7.88;2.03;;;13.30;99.90;;;;;;5050743;28;20396;-56
2022/03/29 12:49:30;;;;;;;8.95;2.15;;;13.00;99.90;;;;;;5030758;28;20902;-54
2022/03/29 12:52:00;;;;;;;6.38;2.10;;;13.20;99.90;;;;;;5050220;28;20405;-56
2022/03/29 12:54:37;;;;;;;5.18;1.95;;;13.60;99.90;;;;;;5049081;28;20654;-58
2022/03/29 12:57:09;;;;;;;6.55;2.17;;;13.60;99.90;;;;;;5032239;28;20390;-58
2022/03/29 12:59:43;;;;;;;6.65;1.73;;;13.50;99.90;;;;;;5048613;28;20373;-54
2022/03/29 13:02:12;;;;;;;6.85;2.22;;;13.30;99.90;;;;;;5029059;28;20400;-58
2022/03/29 13:04:50;;;;;;;6.22;1.75;;;13.60;99.90;;;;;;5027064;28;20374;-58
2022/03/29 13:07:44;;;;;;;5.88;1.92;;;13.60;99.90;;;;;;5026695;28;20378;-56